createdAt,value
2022-08-03T00:00:31.142Z,60.08
2022-08-03T00:03:04.162Z,60.17
2022-08-03T00:05:35.248Z,60.42
2022-08-03T00:08:03.285Z,60.59
2022-08-03T00:10:32.827Z,60.72
2022-08-03T00:13:00.469Z,60.82
2022-08-03T00:15:28.103Z,61.16
2022-08-03T00:17:55.713Z,61.11
2022-08-03T00:20:23.832Z,61.27
2022-08-03T00:22:51.740Z,61.61
2022-08-03T00:25:19.769Z,61.50
2022-08-03T00:27:48.364Z,61.58
2022-08-03T00:30:18.104Z,61.66
2022-08-03T00:32:45.705Z,61.75
2022-08-03T00:35:26.614Z,61.81
2022-08-03T00:38:01.444Z,61.96
2022-08-03T00:40:29.295Z,61.96
2022-08-03T00:42:57.858Z,62.08
2022-08-03T00:45:29.024Z,62.30
2022-08-03T00:47:57.521Z,62.27
2022-08-03T00:50:27.143Z,62.44
2022-08-03T00:52:57.080Z,62.44
2022-08-03T00:55:25.594Z,62.54
2022-08-03T00:57:54.146Z,62.67
2022-08-03T01:00:24.758Z,62.81
2022-08-03T01:02:53.589Z,63.15
2022-08-03T01:05:22.025Z,63.01
2022-08-03T01:08:11.918Z,63.26
2022-08-03T01:10:49.292Z,63.48
2022-08-03T01:14:01.620Z,63.53
2022-08-03T01:16:36.541Z,63.85
2022-08-03T01:19:13.155Z,63.85
2022-08-03T01:22:05.833Z,63.88
2022-08-03T01:25:05.356Z,64.08
2022-08-03T01:28:01.187Z,64.24
2022-08-03T01:30:32.542Z,64.38
2022-08-03T01:33:12.765Z,64.47
2022-08-03T01:35:47.671Z,64.50
2022-08-03T01:38:22.185Z,64.69
2022-08-03T01:40:53.924Z,64.65
2022-08-03T01:44:27.004Z,64.96
2022-08-03T01:46:17.734Z,65.04
2022-08-03T01:48:47.431Z,65.05
2022-08-03T01:51:18.414Z,65.17
2022-08-03T01:53:48.232Z,65.19
2022-08-03T01:56:17.883Z,65.37
2022-08-03T01:58:48.556Z,65.56
2022-08-03T02:01:17.684Z,65.65
2022-08-03T02:04:00.102Z,65.72
2022-08-03T02:07:01.572Z,65.92
2022-08-03T02:09:22.017Z,66.09
2022-08-03T02:11:52.209Z,66.31
2022-08-03T02:14:21.278Z,66.46
2022-08-03T02:16:50.411Z,66.73
2022-08-03T02:19:19.485Z,66.79
2022-08-03T02:21:56.409Z,66.73
2022-08-03T02:24:30.693Z,66.93
2022-08-03T02:26:59.889Z,66.83
2022-08-03T02:29:39.652Z,66.85
2022-08-03T02:32:14.238Z,66.88
2022-08-03T02:34:46.039Z,66.88
2022-08-03T02:37:18.078Z,67.09
2022-08-03T02:39:47.961Z,67.29
2022-08-03T02:42:18.950Z,67.44
2022-08-03T02:44:51.062Z,67.54
2022-08-03T02:47:21.386Z,67.71
2022-08-03T02:49:52.301Z,67.93
2022-08-03T02:52:23.088Z,68.03
2022-08-03T02:54:54.895Z,68.28
2022-08-03T02:57:23.708Z,68.29
2022-08-03T02:59:53.375Z,68.56
2022-08-03T03:02:22.936Z,68.57
2022-08-03T03:05:50.625Z,68.74
2022-08-03T03:07:52.165Z,68.88
2022-08-03T03:10:22.883Z,69.12
2022-08-03T03:12:55.146Z,69.37
2022-08-03T03:15:25.787Z,69.42
2022-08-03T03:17:54.573Z,69.67
2022-08-03T03:20:29.420Z,69.74
2022-08-03T03:23:02.057Z,69.96
2022-08-03T03:25:32.184Z,70.19
2022-08-03T03:28:01.355Z,70.26
2022-08-03T03:30:30.299Z,70.19
2022-08-03T03:32:59.359Z,70.34
2022-08-03T03:35:27.838Z,70.40
2022-08-03T03:37:56.615Z,70.42
2022-08-03T03:40:24.900Z,70.43
2022-08-03T03:42:52.675Z,70.50
2022-08-03T03:45:22.283Z,70.51
2022-08-03T03:47:50.186Z,70.67
2022-08-03T03:50:18.829Z,70.72
2022-08-03T03:52:46.575Z,70.72
2022-08-03T03:55:18.320Z,70.81
2022-08-03T03:57:46.730Z,70.77
2022-08-03T04:00:16.486Z,70.83
2022-08-03T04:02:45.321Z,70.98
2022-08-03T04:05:29.568Z,71.10
2022-08-03T04:08:22.454Z,71.08
2022-08-03T04:11:16.862Z,71.22
2022-08-03T04:13:51.733Z,71.42
2022-08-03T04:16:22.632Z,71.52
2022-08-03T04:18:57.542Z,71.63
2022-08-03T04:21:26.386Z,71.56
2022-08-03T04:23:59.256Z,71.53
2022-08-03T04:26:31.897Z,71.54
2022-08-03T04:29:00.915Z,71.65
2022-08-03T04:31:30.292Z,71.73
2022-08-03T04:33:59.365Z,71.97
2022-08-03T04:36:31.751Z,71.97
2022-08-03T04:39:08.170Z,71.70
2022-08-03T04:42:04.447Z,71.61
2022-08-03T04:44:28.382Z,71.90
2022-08-03T04:46:57.858Z,71.76
2022-08-03T04:49:27.117Z,71.80
2022-08-03T04:51:54.914Z,71.64
2022-08-03T04:54:22.514Z,71.68
2022-08-03T04:56:50.121Z,71.80
2022-08-03T04:59:17.981Z,71.80
2022-08-03T05:01:45.837Z,71.95
2022-08-03T05:04:14.461Z,71.91
2022-08-03T05:06:48.354Z,71.93
2022-08-03T05:09:52.888Z,71.96
2022-08-03T05:12:11.146Z,72.24
2022-08-03T05:14:39.181Z,72.30
2022-08-03T05:17:08.021Z,72.33
2022-08-03T05:19:35.758Z,72.39
2022-08-03T05:22:03.482Z,72.38
2022-08-03T05:24:31.145Z,72.26
2022-08-03T05:26:58.849Z,71.99
2022-08-03T05:29:26.420Z,71.88
2022-08-03T05:31:54.005Z,71.83
2022-08-03T05:34:21.623Z,71.45
2022-08-03T05:36:49.204Z,71.27
2022-08-03T05:39:16.879Z,71.26
2022-08-03T05:41:44.554Z,71.35
2022-08-03T05:44:12.126Z,71.39
2022-08-03T05:46:39.955Z,71.06
2022-08-03T05:49:07.629Z,70.79
2022-08-03T05:51:35.417Z,70.81
2022-08-03T05:54:03.359Z,70.64
2022-08-03T05:56:31.085Z,70.26
2022-08-03T05:59:04.223Z,70.00
2022-08-03T06:01:44.122Z,69.82
2022-08-03T06:04:11.940Z,69.62
2022-08-03T06:06:39.536Z,69.54
2022-08-03T06:09:07.136Z,69.46
2022-08-03T06:11:35.317Z,69.22
2022-08-03T06:14:03.617Z,68.92
2022-08-03T06:16:31.483Z,68.86
2022-08-03T06:18:59.148Z,68.68
2022-08-03T06:21:27.186Z,68.62
2022-08-03T06:23:55.715Z,68.54
2022-08-03T06:26:27.842Z,68.32
2022-08-03T06:28:56.061Z,68.45
2022-08-03T06:31:32.849Z,68.24
2022-08-03T06:34:33.937Z,68.05
2022-08-03T06:36:58.503Z,67.77
2022-08-03T06:39:30.132Z,67.78
2022-08-03T06:41:58.108Z,67.45
2022-08-03T06:44:26.151Z,67.31
2022-08-03T06:46:53.789Z,67.15
2022-08-03T06:49:21.499Z,67.01
2022-08-03T06:52:04.118Z,66.75
2022-08-03T06:54:34.654Z,66.16
2022-08-03T06:57:02.492Z,66.02
2022-08-03T07:00:08.951Z,65.66
2022-08-03T07:02:19.832Z,65.10
2022-08-03T07:04:48.952Z,65.03
2022-08-03T07:07:17.712Z,64.20
2022-08-03T07:09:56.483Z,63.97
2022-08-03T07:12:29.933Z,63.56
2022-08-03T07:15:02.338Z,63.63
2022-08-03T07:17:32.951Z,63.34
2022-08-03T07:20:03.060Z,62.95
2022-08-03T07:22:30.691Z,62.94
2022-08-03T07:24:59.190Z,62.87
2022-08-03T07:27:28.405Z,62.17
2022-08-03T07:29:57.955Z,62.08
2022-08-03T07:32:27.013Z,61.93
2022-08-03T07:34:58.499Z,61.67
2022-08-03T07:37:29.196Z,61.79
2022-08-03T07:39:57.374Z,61.71
2022-08-03T07:42:26.100Z,61.47
2022-08-03T07:44:54.013Z,61.24
2022-08-03T07:47:24.453Z,60.36
2022-08-03T07:49:52.842Z,60.07
2022-08-03T07:52:36.154Z,60.04
2022-08-03T07:55:06.403Z,58.98
2022-08-03T07:57:35.150Z,58.85
2022-08-03T08:00:07.369Z,58.70
2022-08-03T08:02:41.567Z,58.48
2022-08-03T08:05:10.860Z,57.23
2022-08-03T08:07:39.377Z,56.98
2022-08-03T08:10:09.840Z,56.74
2022-08-03T08:12:39.151Z,56.52
2022-08-03T08:15:08.070Z,56.30
2022-08-03T08:17:53.870Z,56.37
2022-08-03T08:20:28.471Z,55.69
2022-08-03T08:23:25.480Z,55.21
2022-08-03T08:25:56.914Z,54.96
2022-08-03T08:28:30.842Z,54.86
2022-08-03T08:31:01.057Z,55.11
2022-08-03T08:33:42.109Z,54.30
2022-08-03T08:36:16.709Z,53.93
2022-08-03T08:38:45.238Z,54.17
2022-08-03T08:41:14.598Z,53.72
2022-08-03T08:43:42.917Z,53.84
2022-08-03T08:46:23.239Z,53.37
2022-08-03T08:48:53.871Z,53.22
2022-08-03T08:51:52.749Z,53.03
2022-08-03T08:54:18.123Z,52.91
2022-08-03T08:56:46.952Z,53.11
2022-08-03T08:59:15.074Z,52.78
2022-08-03T09:01:43.001Z,52.73
2022-08-03T09:04:12.262Z,52.58
2022-08-03T09:06:39.873Z,52.28
2022-08-03T09:09:08.258Z,52.29
2022-08-03T09:12:00.800Z,51.80
2022-08-03T09:14:36.974Z,51.67
2022-08-03T09:17:10.085Z,51.56
2022-08-03T09:20:06.294Z,51.10
2022-08-03T09:22:33.922Z,50.32
2022-08-03T09:25:23.942Z,50.88
2022-08-03T09:27:53.418Z,49.99
2022-08-03T09:30:34.352Z,50.48
2022-08-03T09:33:05.397Z,49.80
2022-08-03T09:38:25.856Z,49.68
2022-08-03T09:40:59.554Z,49.92
2022-08-03T09:43:28.619Z,49.39
2022-08-03T09:46:04.783Z,49.33
2022-08-03T09:48:34.796Z,48.81
2022-08-03T09:51:12.878Z,48.51
2022-08-03T09:53:59.121Z,48.02
2022-08-03T09:56:44.812Z,48.12
2022-08-03T09:59:23.693Z,48.06
2022-08-03T10:01:51.536Z,48.30
2022-08-03T10:04:19.410Z,48.03
2022-08-03T10:07:06.228Z,47.67
2022-08-03T10:09:34.001Z,47.20
2022-08-03T10:12:17.810Z,46.76
2022-08-03T10:14:46.633Z,46.43
2022-08-03T10:17:14.280Z,46.84
2022-08-03T10:19:42.022Z,46.77
2022-08-03T10:22:16.189Z,46.53
2022-08-03T10:25:02.746Z,46.13
2022-08-03T10:27:35.188Z,45.56
2022-08-03T10:30:06.715Z,45.90
2022-08-03T10:32:40.395Z,45.68
2022-08-03T10:35:20.112Z,45.47
2022-08-03T10:38:08.603Z,45.30
2022-08-03T10:40:55.883Z,45.36
2022-08-03T10:43:40.769Z,45.11
2022-08-03T10:46:08.622Z,44.76
2022-08-03T10:48:37.098Z,45.17
2022-08-03T10:51:06.752Z,45.08
2022-08-03T10:53:40.354Z,44.63
2022-08-03T10:56:50.518Z,44.46
2022-08-03T10:59:27.653Z,44.08
2022-08-03T11:02:00.153Z,44.12
2022-08-03T11:04:30.380Z,43.75
2022-08-03T11:07:17.618Z,43.73
2022-08-03T11:09:48.648Z,43.59
2022-08-03T11:12:30.077Z,43.11
2022-08-03T11:15:05.586Z,42.96
2022-08-03T11:17:46.505Z,42.73
2022-08-03T11:20:45.465Z,42.57
2022-08-03T11:23:15.009Z,42.34
2022-08-03T11:26:14.638Z,42.14
2022-08-03T11:28:44.508Z,41.72
2022-08-03T11:31:49.390Z,41.44
2022-08-03T11:34:17.645Z,41.44
2022-08-03T11:37:16.500Z,41.05
2022-08-03T11:39:47.324Z,40.84
2022-08-03T11:42:33.717Z,40.61
2022-08-03T11:45:01.405Z,40.78
2022-08-03T11:47:29.988Z,40.77
2022-08-03T11:50:01.760Z,40.50
2022-08-03T11:52:37.794Z,40.47
2022-08-03T11:55:10.209Z,40.66
2022-08-03T11:58:58.057Z,40.40
2022-08-03T12:00:28.873Z,40.44
2022-08-03T12:02:58.047Z,40.20
2022-08-03T12:05:52.159Z,39.97
2022-08-03T12:08:36.173Z,39.86
2022-08-03T12:11:06.781Z,39.62
2022-08-03T12:14:44.751Z,39.68
2022-08-03T12:16:32.931Z,39.44
2022-08-03T12:19:03.300Z,39.46
2022-08-03T12:21:31.058Z,38.96
2022-08-03T12:24:04.523Z,39.06
2022-08-03T12:26:45.237Z,38.98
2022-08-03T12:29:27.654Z,38.35
2022-08-03T12:31:56.125Z,37.60
2022-08-03T12:34:23.932Z,37.49
2022-08-03T12:36:55.970Z,37.04
2022-08-03T12:39:25.482Z,37.04
2022-08-03T12:41:54.585Z,36.07
2022-08-03T12:44:39.318Z,35.75
2022-08-03T12:47:07.139Z,35.37
2022-08-03T12:49:51.879Z,34.65
2022-08-03T12:52:22.017Z,33.68
2022-08-03T12:55:00.713Z,32.81
2022-08-03T12:57:44.296Z,32.42
2022-08-03T13:00:21.544Z,31.57
2022-08-03T13:03:26.528Z,31.38
2022-08-03T13:05:49.247Z,30.29
2022-08-03T13:08:21.086Z,29.68
2022-08-03T13:10:48.796Z,28.97
2022-08-03T13:13:16.880Z,28.63
2022-08-03T13:15:48.051Z,27.49
2022-08-03T13:18:17.285Z,27.20
2022-08-03T13:20:45.491Z,26.22
2022-08-03T13:23:22.097Z,25.03
2022-08-03T13:25:55.772Z,24.46
2022-08-03T13:28:23.869Z,24.02
2022-08-03T13:30:51.626Z,23.69
2022-08-03T13:33:19.244Z,23.00
2022-08-03T13:35:46.946Z,22.69
2022-08-03T13:38:15.239Z,21.77
2022-08-03T13:40:46.137Z,21.05
2022-08-03T13:43:17.763Z,20.82
2022-08-03T13:45:51.244Z,20.01
2022-08-03T13:48:36.664Z,19.56
2022-08-03T13:51:21.864Z,19.27
2022-08-03T13:53:52.147Z,19.02
2022-08-03T13:56:19.814Z,18.33
2022-08-03T13:58:47.464Z,17.93
2022-08-03T14:01:15.456Z,17.51
2022-08-03T14:03:43.154Z,17.38
2022-08-03T14:06:10.763Z,17.07
2022-08-03T14:08:38.416Z,15.89
2022-08-03T14:11:06.578Z,15.89
2022-08-03T14:13:34.163Z,15.29
2022-08-03T14:16:01.845Z,15.29
2022-08-03T14:18:33.487Z,14.91
2022-08-03T14:21:07.503Z,14.72
2022-08-03T14:23:37.860Z,14.23
2022-08-03T14:26:09.404Z,14.39
2022-08-03T14:28:37.629Z,14.55
2022-08-03T14:31:08.220Z,14.15
2022-08-03T14:33:43.315Z,13.88
2022-08-03T14:36:10.983Z,13.64
2022-08-03T14:38:38.543Z,13.56
2022-08-03T14:41:06.203Z,13.69
2022-08-03T14:43:39.933Z,13.54
2022-08-03T14:46:27.569Z,12.99
2022-08-03T14:50:32.846Z,12.68
2022-08-03T14:51:51.336Z,12.80
2022-08-03T14:54:22.278Z,12.67
2022-08-03T14:56:49.976Z,12.43
2022-08-03T14:59:17.643Z,12.47
2022-08-03T15:02:03.168Z,12.23
2022-08-03T15:04:32.874Z,12.27
2022-08-03T15:07:00.437Z,12.10
2022-08-03T15:09:28.045Z,11.78
2022-08-03T15:11:55.665Z,11.99
2022-08-03T15:14:32.260Z,11.85
2022-08-03T15:17:01.454Z,11.61
2022-08-03T15:20:03.627Z,11.72
2022-08-03T15:22:19.023Z,11.52
2022-08-03T15:24:48.554Z,11.50
2022-08-03T15:27:16.182Z,11.26
2022-08-03T15:30:09.386Z,11.44
2022-08-03T15:32:31.459Z,11.30
2022-08-03T15:35:00.428Z,11.32
2022-08-03T15:37:28.439Z,11.51
2022-08-03T15:40:00.090Z,11.44
2022-08-03T15:42:30.195Z,11.31
2022-08-03T15:44:58.442Z,11.30
2022-08-03T15:47:26.806Z,11.43
2022-08-03T15:49:54.595Z,11.39
2022-08-03T15:52:22.295Z,11.45
2022-08-03T15:54:50.328Z,11.50
2022-08-03T15:57:18.098Z,11.47
2022-08-03T15:59:45.854Z,11.27
2022-08-03T16:02:13.716Z,11.47
2022-08-03T16:04:41.312Z,11.64
2022-08-03T16:07:12.812Z,11.69
2022-08-03T16:09:42.875Z,11.92
2022-08-03T16:12:15.563Z,11.74
2022-08-03T16:14:52.756Z,12.02
2022-08-03T16:17:22.636Z,12.15
2022-08-03T16:19:52.159Z,12.19
2022-08-03T16:22:26.299Z,12.01
2022-08-03T16:24:54.553Z,12.38
2022-08-03T16:27:36.945Z,12.54
2022-08-03T16:30:07.301Z,12.43
2022-08-03T16:32:35.445Z,12.31
2022-08-03T16:35:04.655Z,12.39
2022-08-03T16:37:39.669Z,12.75
2022-08-03T16:40:17.650Z,12.49
2022-08-03T16:42:47.639Z,12.61
2022-08-03T16:45:15.310Z,12.83
2022-08-03T16:47:42.916Z,12.89
2022-08-03T16:50:17.177Z,13.22
2022-08-03T16:52:48.504Z,13.41
2022-08-03T16:55:43.515Z,13.48
2022-08-03T16:58:06.076Z,13.86
2022-08-03T17:00:41.524Z,13.78
2022-08-03T17:03:18.845Z,13.86
2022-08-03T17:05:50.020Z,14.44
2022-08-03T17:08:18.954Z,14.36
2022-08-03T17:10:55.708Z,14.93
2022-08-03T17:13:39.034Z,15.02
2022-08-03T17:16:10.409Z,15.61
2022-08-03T17:18:47.385Z,15.94
2022-08-03T17:21:17.357Z,16.36
2022-08-03T17:23:55.138Z,16.67
2022-08-03T17:26:23.774Z,17.42
2022-08-03T17:29:11.288Z,17.82
2022-08-03T17:31:48.842Z,17.98
2022-08-03T17:34:19.334Z,18.51
2022-08-03T17:37:03.836Z,18.72
2022-08-03T17:39:57.046Z,19.38
2022-08-03T17:42:30.268Z,19.82
2022-08-03T17:45:02.568Z,20.13
2022-08-03T17:47:57.475Z,20.64
2022-08-03T17:50:46.487Z,20.90
2022-08-03T17:53:24.306Z,21.41
2022-08-03T17:56:03.320Z,21.69
2022-08-03T17:58:52.765Z,22.07
2022-08-03T18:02:00.651Z,22.51
2022-08-03T18:04:41.280Z,22.88
2022-08-03T18:07:12.472Z,23.16
2022-08-03T18:10:04.772Z,23.33
2022-08-03T18:12:59.485Z,23.69
2022-08-03T18:15:32.452Z,24.27
2022-08-03T18:18:10.278Z,24.51
2022-08-03T18:20:42.106Z,24.96
2022-08-03T18:23:25.444Z,25.37
2022-08-03T18:26:04.854Z,25.69
2022-08-03T18:28:34.368Z,25.66
2022-08-03T18:31:05.908Z,25.82
2022-08-03T18:34:19.531Z,26.28
2022-08-03T18:36:30.620Z,26.98
2022-08-03T18:41:48.066Z,27.76
2022-08-03T18:44:52.659Z,27.87
2022-08-03T18:50:33.980Z,29.63
2022-08-03T18:53:19.638Z,29.76
2022-08-03T18:56:03.220Z,30.19
2022-08-03T18:58:48.639Z,30.41
2022-08-03T19:01:59.087Z,30.68
2022-08-03T19:04:46.222Z,31.02
2022-08-03T19:07:22.200Z,31.31
2022-08-03T19:10:09.651Z,31.52
2022-08-03T19:12:45.779Z,31.89
2022-08-03T19:15:15.604Z,32.26
2022-08-03T19:17:50.212Z,32.30
2022-08-03T19:20:37.755Z,32.73
2022-08-03T19:23:06.768Z,32.78
2022-08-03T19:25:39.271Z,32.86
2022-08-03T19:28:09.100Z,33.03
2022-08-03T19:33:31.193Z,33.86
2022-08-03T19:36:26.406Z,34.17
2022-08-03T19:38:59.162Z,34.47
2022-08-03T19:41:42.253Z,34.70
2022-08-03T19:44:23.765Z,35.18
2022-08-03T19:47:01.208Z,35.42
2022-08-03T19:50:05.303Z,35.69
2022-08-03T19:52:31.414Z,36.38
2022-08-03T19:55:03.884Z,36.53
2022-08-03T19:57:33.361Z,36.87
2022-08-03T20:00:03.396Z,37.06
2022-08-03T20:02:33.307Z,37.34
2022-08-03T20:05:01.288Z,37.48
2022-08-03T20:07:32.719Z,37.73
2022-08-03T20:10:04.188Z,38.01
2022-08-03T20:12:39.142Z,38.33
2022-08-03T20:15:09.066Z,38.57
2022-08-03T20:17:54.515Z,38.91
2022-08-03T20:20:30.034Z,39.23
2022-08-03T20:23:00.486Z,39.33
2022-08-03T20:25:38.264Z,39.46
2022-08-03T20:28:15.111Z,39.66
2022-08-03T20:30:47.356Z,39.84
2022-08-03T20:33:18.630Z,39.93
2022-08-03T20:35:49.620Z,40.14
2022-08-03T20:38:18.928Z,40.19
2022-08-03T20:40:48.371Z,40.27
2022-08-03T20:43:16.949Z,40.49
2022-08-03T20:46:00.390Z,40.72
2022-08-03T20:48:37.243Z,40.99
2022-08-03T20:51:15.719Z,40.92
2022-08-03T20:54:00.395Z,41.05
2022-08-03T20:56:33.582Z,41.14
2022-08-03T20:59:06.999Z,40.86
2022-08-03T21:01:44.343Z,41.10
2022-08-03T21:04:13.581Z,41.08
2022-08-03T21:06:53.142Z,41.19
2022-08-03T21:09:39.852Z,41.52
2022-08-03T21:12:15.489Z,41.66
2022-08-03T21:12:58.867Z,27.32
2022-08-03T21:13:00.464Z,28.44
2022-08-03T21:13:09.879Z,33.21
2022-08-03T21:15:04.415Z,41.66
2022-08-03T21:17:42.062Z,41.88
2022-08-03T21:20:12.058Z,42.05
2022-08-03T21:22:45.142Z,42.01
2022-08-03T21:25:16.012Z,42.28
2022-08-03T21:27:43.827Z,42.28
2022-08-03T21:30:12.278Z,42.52
2022-08-03T21:32:42.971Z,42.78
2022-08-03T21:35:12.355Z,42.99
2022-08-03T21:37:41.659Z,42.95
2022-08-03T21:40:12.325Z,43.11
2022-08-03T21:42:41.360Z,43.18
2022-08-03T21:45:16.924Z,43.33
2022-08-03T21:47:46.851Z,43.76
2022-08-03T21:50:15.542Z,44.01
2022-08-03T21:52:48.876Z,44.08
2022-08-03T21:55:20.527Z,44.34
2022-08-03T21:57:53.024Z,44.42
2022-08-03T22:00:23.279Z,44.59
2022-08-03T22:02:56.045Z,44.76
2022-08-03T22:05:29.031Z,44.72
2022-08-03T22:08:15.370Z,45.12
2022-08-03T22:10:43.746Z,45.10
2022-08-03T22:13:13.896Z,45.34
2022-08-03T22:15:42.085Z,45.58
2022-08-03T22:18:12.722Z,45.97
2022-08-03T22:20:40.870Z,46.15
2022-08-03T22:23:09.745Z,46.14
2022-08-03T22:25:39.666Z,46.23
2022-08-03T22:28:10.541Z,46.46
2022-08-03T22:30:39.649Z,46.71
2022-08-03T22:33:11.643Z,46.85
2022-08-03T22:35:47.458Z,47.10
2022-08-03T22:38:18.003Z,47.25
2022-08-03T22:40:48.997Z,47.44
2022-08-03T22:43:17.340Z,47.53
2022-08-03T22:46:10.477Z,47.59
2022-08-03T22:48:40.919Z,47.81
2022-08-03T22:51:10.095Z,47.91
2022-08-03T22:53:38.976Z,47.95
2022-08-03T22:56:07.645Z,47.88
2022-08-03T22:58:35.215Z,47.80
2022-08-03T23:01:11.476Z,48.03
2022-08-03T23:04:01.248Z,48.42
2022-08-03T23:06:34.855Z,48.56
2022-08-03T23:09:08.565Z,48.59
2022-08-03T23:11:45.239Z,48.78
2022-08-03T23:14:18.372Z,48.84
2022-08-03T23:16:47.683Z,48.97
2022-08-03T23:19:25.028Z,49.18
2022-08-03T23:22:02.469Z,49.49
2022-08-03T23:24:36.363Z,49.60
2022-08-03T23:27:06.930Z,49.56
2022-08-03T23:29:36.759Z,49.63
2022-08-03T23:32:05.791Z,49.94
2022-08-03T23:34:49.413Z,50.10
2022-08-03T23:37:20.169Z,50.41
2022-08-03T23:39:48.883Z,50.46
2022-08-03T23:42:18.661Z,50.47
2022-08-03T23:44:46.913Z,50.73
2022-08-03T23:47:14.635Z,50.85
2022-08-03T23:49:42.446Z,50.92
2022-08-03T23:52:25.312Z,51.03
2022-08-03T23:55:09.026Z,51.36
2022-08-03T23:57:45.612Z,51.56
